Etusivu
METAR-TAF:

METAR-TAF

Lentoasemat :

Chicago Executive Airport

Wheeling / Prospect Heights, Illinois, Yhdysvallat

Leveyspiiri: 42-07-15N, Pituuspiiri: 087-54-17W, korkeus merenpinnasta: 197 m

Tämänhetkinen sää

Tämä raportti tehtiin 41 minuuttia sitten, kello 07.52 UTC
Tuuli 5 kn idästä
Lämpötila 7°C
Kosteus 100%
Ilmanpaine 1006 hPa
Näkyvyys: 9.7 km
Muutamia pilviä 300 ft:n korkeudessa
Hajonneita pilviä 7500 ft:n korkeudessa
Pilvistä 9000 ft:n korkeudessa
heikkoa sadetta, utua

METAR: KPWK 280752Z AUTO 08005KT 6SM -RA BR FEW003 BKN075 OVC090 07/07 A2972 RMK AO2 LTG DSNT NE-SE TSE37 SLP067 P0019 T00720067

Aika: 03:33 (08:33 UTC)


TAF: puuttuu

Säähavainnot ja -ennusteet yli 4000 lentoasemalta (METAR- ja TAF-raportit).

Käytössä olevat sääasemat on merkitty karttaan keltaisilla ja punaisilla pisteillä.

Aseta hiiri pisteen päälle nähdäksesi sääaseman nimen.

Klikkaa sitten nähdäksesi säähavainnot ja -ennusteet.

Kartan vaihtaminen: klikkaa mustalla rastilla varustettuja vihreitä pisteitä, niin voit zoomata sisään; viivalla varustettua vihreää pistettä, niin voit zoomata ulos tai vihreitä nuolia, niin pääset viereisille kartoille.


METAR-TAF: